Cap Aiguades — FMII — position and weather

sailwx.info

Track history (hours):
 
Tides and Currents Weather Stations Pressure Air Temp Water Temp Dewpoint Dewpoint Depression Visibility Wind Speed Wind Dir Waves Ship Positions

Cap Aiguades

Last reported at 2016-Jul-23 14:33 UTC. Time now 2016-Jul-23 15:04 UTC.
Position N 43°24' E 004°59'.

Length 89 m; draft 3.4 m.

Type: Ship. MMSI: 228237800.

Date/timePositionNaut miles runAvg speedWind from/ knotsBaromVisibWave heightAir tempDewpointWater temp
2016-Jul-23 14:33N 43°24' E 004°59'0 0.0
2016-Jul-23 13:33N 43°24' E 004°59'0 0.0
2016-Jul-23 12:33N 43°24' E 004°59'0 0.0
2016-Jul-23 11:33N 43°24' E 004°59'1 0.7
2016-Jul-23 10:33N 43°23' E 004°59'1 0.0
2016-Jul-22 05:33N 43°24' E 004°59'0 0.0
2016-Jul-22 04:34N 43°24' E 004°59'0 0.0
2016-Jul-22 03:33N 43°24' E 004°59'0 0.0
2016-Jul-22 02:33N 43°24' E 004°59'0 0.0
2016-Jul-22 01:33N 43°24' E 004°59'0 0.0
2016-Jul-22 00:33N 43°24' E 004°59'0 0.0
2016-Jul-21 23:33N 43°24' E 004°59'0 0.0
2016-Jul-21 22:33N 43°24' E 004°59'0 0.0
2016-Jul-21 21:33N 43°24' E 004°59'3 3.2
2016-Jul-21 20:33N 43°20' E 004°60'42 5.9
2016-Jul-21 13:33N 43°06' E 005°53'0 0.1
2016-Jul-21 12:34N 43°06' E 005°53'0 0.0
2016-Jul-21 11:33N 43°06' E 005°53'0 0.0
2016-Jul-21 10:33N 43°06' E 005°53'0 0.0
2016-Jul-21 09:33N 43°06' E 005°53'0 0.1
2016-Jul-21 08:33N 43°06' E 005°54'1 0.1
2016-Jul-21 02:33N 43°06' E 005°54'0 0.3
2016-Jul-21 01:34N 43°06' E 005°54'0 0.0
2016-Jul-21 00:33N 43°06' E 005°54'0 0.0
2016-Jul-20 23:33N 43°06' E 005°54'0 0.0
2016-Jul-20 22:33N 43°06' E 005°54'0 0.0
2016-Jul-20 21:33N 43°06' E 005°54'0 0.0
2016-Jul-20 20:34N 43°06' E 005°54'0 0.0
2016-Jul-20 19:33N 43°06' E 005°54'43 3.6
2016-Jul-20 07:33N 43°24' E 004°59'0 0.0
2016-Jul-20 06:34N 43°24' E 004°59'0 0.0
2016-Jul-20 05:33N 43°24' E 004°59'0 0.0
2016-Jul-20 04:34N 43°24' E 004°59'0 0.0
2016-Jul-20 03:33N 43°24' E 004°59'0 0.0
2016-Jul-20 02:34N 43°24' E 004°59'0 0.0
2016-Jul-20 01:34N 43°24' E 004°59'0 0.0
2016-Jul-20 00:34N 43°24' E 004°59'0 0.0
2016-Jul-19 23:33N 43°24' E 004°59'0 0.0
2016-Jul-19 22:33N 43°24' E 004°59'0 0.0
2016-Jul-19 21:34N 43°24' E 004°59'0 0.0
2016-Jul-19 20:34N 43°24' E 004°59'0 0.0
2016-Jul-19 19:33N 43°24' E 004°59'0 0.0
2016-Jul-19 18:34N 43°24' E 004°59'0 0.0
2016-Jul-19 17:33N 43°24' E 004°59'0 0.0
2016-Jul-19 16:33N 43°24' E 004°59'1 0.6
2016-Jul-19 15:33N 43°24' E 004°59'0 0.0
2016-Jul-19 14:33N 43°24' E 004°59'0 0.0
2016-Jul-19 13:33N 43°24' E 004°59'0 0.0
2016-Jul-19 12:34N 43°24' E 004°59'0 0.0
2016-Jul-19 11:33N 43°24' E 004°59'0 0.0
2016-Jul-19 10:33N 43°24' E 004°59'0 0.0
2016-Jul-19 09:34N 43°24' E 004°59'0 0.0
2016-Jul-19 08:33N 43°24' E 004°59'0 0.0
2016-Jul-19 07:33N 43°24' E 004°59'5 0.3
2016-Jul-18 13:21N 43°26' E 004°53'0 0.0
2016-Jul-18 12:31N 43°26' E 004°53'0 0.0
2016-Jul-18 11:32N 43°26' E 004°53'5 2.4
2016-Jul-18 09:33N 43°24' E 004°59'0 0.0
2016-Jul-18 08:33N 43°24' E 004°59'0 0.0
2016-Jul-18 07:33N 43°24' E 004°59'0 0.0
2016-Jul-18 06:33N 43°24' E 004°59'0 0.0
2016-Jul-18 05:33N 43°24' E 004°59'0 0.0
2016-Jul-18 04:34N 43°24' E 004°59'0 0.0
2016-Jul-18 03:33N 43°24' E 004°59'0 0.0
2016-Jul-18 02:33N 43°24' E 004°59'0 0.0
2016-Jul-18 01:33N 43°24' E 004°59'0 0.0
2016-Jul-18 00:33N 43°24' E 004°59'0 0.0
2016-Jul-17 23:34N 43°24' E 004°59'0 0.0
2016-Jul-17 22:33N 43°24' E 004°59'0 0.0
2016-Jul-17 21:34N 43°24' E 004°59'0 0.0
2016-Jul-17 20:34N 43°24' E 004°59'1 0.6
2016-Jul-17 19:34N 43°24' E 004°59'0 0.0
2016-Jul-17 18:33N 43°24' E 004°59'0 0.0
2016-Jul-17 17:33N 43°24' E 004°59'0 0.0
2016-Jul-17 16:33N 43°24' E 004°59'0 0.0
2016-Jul-17 15:33N 43°24' E 004°59'0 0.0
2016-Jul-17 14:33N 43°24' E 004°59'0 0.0
2016-Jul-17 13:34N 43°24' E 004°59'0 0.0
2016-Jul-17 12:34N 43°24' E 004°59'0 0.0
2016-Jul-17 11:33N 43°24' E 004°59'0 0.0
2016-Jul-17 10:33N 43°24' E 004°59'0 0.0
2016-Jul-17 09:33N 43°24' E 004°59'0 0.0
2016-Jul-17 08:33N 43°24' E 004°59'0 0.0
2016-Jul-17 07:33N 43°24' E 004°59'0 0.0
2016-Jul-17 06:34N 43°24' E 004°59'0 0.0
2016-Jul-17 04:33N 43°24' E 004°59'0 0.0
2016-Jul-17 03:33N 43°24' E 004°59'0 0.0
2016-Jul-17 02:34N 43°24' E 004°59'0 0.0
2016-Jul-17 01:33N 43°24' E 004°59'0 0.0
2016-Jul-17 00:33N 43°24' E 004°59'1 0.1
2016-Jul-16 14:26N 43°23' E 004°58'1 1.1
2016-Jul-16 13:33N 43°24' E 004°60'0 0.0
2016-Jul-16 12:33N 43°24' E 004°60'0 0.2
2016-Jul-16 11:33N 43°24' E 004°59'0 0.3
2016-Jul-16 10:33N 43°24' E 004°59'0 0.0
2016-Jul-16 09:34N 43°24' E 004°59'0 0.0
2016-Jul-16 08:33N 43°24' E 004°59'0 0.0
2016-Jul-16 07:33N 43°24' E 004°59'0 0.0
2016-Jul-16 06:33N 43°24' E 004°59'0 0.0
2016-Jul-16 04:33N 43°24' E 004°59'0 0.0
2016-Jul-16 03:33N 43°24' E 004°59'0 0.0
2016-Jul-16 02:33N 43°24' E 004°59'0 0.0
2016-Jul-16 01:33N 43°24' E 004°59'0 0.0
2016-Jul-16 00:33N 43°24' E 004°59'0 0.0
2016-Jul-15 05:33N 43°24' E 004°59'0 0.1
2016-Jul-15 04:33N 43°24' E 004°59'0 0.0
2016-Jul-15 03:33N 43°24' E 004°59'0 0.0
2016-Jul-15 02:34N 43°24' E 004°59'0 0.0
2016-Jul-15 01:34N 43°24' E 004°59'0 0.0
2016-Jul-15 00:34N 43°24' E 004°59'0 0.0
2016-Jul-14 23:33N 43°24' E 004°59'0 0.0
2016-Jul-14 22:33N 43°24' E 004°59'0 0.0
2016-Jul-14 21:33N 43°24' E 004°59'0 0.0
2016-Jul-14 20:33N 43°24' E 004°59'0 0.0
2016-Jul-14 19:33N 43°24' E 004°59'0 0.0
2016-Jul-14 18:33N 43°24' E 004°59'44 6.8
2016-Jul-14 12:03N 43°07' E 005°56'0 0.0
2016-Jul-14 11:27N 43°07' E 005°56'0 0.0
2016-Jul-14 10:27N 43°07' E 005°56'0 0.2
2016-Jul-14 07:18N 43°07' E 005°55'1 1.3
2016-Jul-14 06:28N 43°06' E 005°54'0 0.0
2016-Jul-14 05:31N 43°06' E 005°54'0 0.0
2016-Jul-14 04:28N 43°06' E 005°54'0 0.0
2016-Jul-14 03:31N 43°06' E 005°54'0 0.0
2016-Jul-14 02:28N 43°06' E 005°54'0 0.0
2016-Jul-14 01:31N 43°06' E 005°54'0 0.0
2016-Jul-14 00:31N 43°06' E 005°54'0 0.0
2016-Jul-13 23:31N 43°06' E 005°54'0 0.0
2016-Jul-13 22:31N 43°06' E 005°54'0 0.0
2016-Jul-13 21:31N 43°06' E 005°54'0 0.0
2016-Jul-13 20:31N 43°06' E 005°54'2 1.5
2016-Jul-13 19:28N 43°07' E 005°56'0 0.1
2016-Jul-13 18:31N 43°07' E 005°56'2 1.5
2016-Jul-13 17:31N 43°06' E 005°54'0 0.0
2016-Jul-13 16:33N 43°06' E 005°54'0 0.0
2016-Jul-13 15:33N 43°06' E 005°54'  
Track history (hours):
 
Tides and Currents Weather Stations Pressure Air Temp Water Temp Dewpoint Dewpoint Depression Visibility Wind Speed Wind Dir Waves Ship Positions

Cap Aiguades

Last reported at 2016-Jul-23 14:33 UTC. Time now 2016-Jul-23 15:04 UTC.
Position N 43°24' E 004°59'.

Length 89 m; draft 3.4 m.

Type: Ship. MMSI: 228237800.

Date/timePositionNaut miles runAvg speedWind from/ knotsBaromVisibWave heightAir tempDewpointWater temp
2016-Jul-23 14:33N 43°24' E 004°59'0 0.0
2016-Jul-23 13:33N 43°24' E 004°59'0 0.0
2016-Jul-23 12:33N 43°24' E 004°59'0 0.0
2016-Jul-23 11:33N 43°24' E 004°59'1 0.7
2016-Jul-23 10:33N 43°23' E 004°59'1 0.0
2016-Jul-22 05:33N 43°24' E 004°59'0 0.0
2016-Jul-22 04:34N 43°24' E 004°59'0 0.0
2016-Jul-22 03:33N 43°24' E 004°59'0 0.0
2016-Jul-22 02:33N 43°24' E 004°59'0 0.0
2016-Jul-22 01:33N 43°24' E 004°59'0 0.0
2016-Jul-22 00:33N 43°24' E 004°59'0 0.0
2016-Jul-21 23:33N 43°24' E 004°59'0 0.0
2016-Jul-21 22:33N 43°24' E 004°59'0 0.0
2016-Jul-21 21:33N 43°24' E 004°59'3 3.2
2016-Jul-21 20:33N 43°20' E 004°60'42 5.9
2016-Jul-21 13:33N 43°06' E 005°53'0 0.1
2016-Jul-21 12:34N 43°06' E 005°53'0 0.0
2016-Jul-21 11:33N 43°06' E 005°53'0 0.0
2016-Jul-21 10:33N 43°06' E 005°53'0 0.0
2016-Jul-21 09:33N 43°06' E 005°53'0 0.1
2016-Jul-21 08:33N 43°06' E 005°54'1 0.1
2016-Jul-21 02:33N 43°06' E 005°54'0 0.3
2016-Jul-21 01:34N 43°06' E 005°54'0 0.0
2016-Jul-21 00:33N 43°06' E 005°54'0 0.0
2016-Jul-20 23:33N 43°06' E 005°54'0 0.0
2016-Jul-20 22:33N 43°06' E 005°54'0 0.0
2016-Jul-20 21:33N 43°06' E 005°54'0 0.0
2016-Jul-20 20:34N 43°06' E 005°54'0 0.0
2016-Jul-20 19:33N 43°06' E 005°54'43 3.6
2016-Jul-20 07:33N 43°24' E 004°59'0 0.0
2016-Jul-20 06:34N 43°24' E 004°59'0 0.0
2016-Jul-20 05:33N 43°24' E 004°59'0 0.0
2016-Jul-20 04:34N 43°24' E 004°59'0 0.0
2016-Jul-20 03:33N 43°24' E 004°59'0 0.0
2016-Jul-20 02:34N 43°24' E 004°59'0 0.0
2016-Jul-20 01:34N 43°24' E 004°59'0 0.0
2016-Jul-20 00:34N 43°24' E 004°59'0 0.0
2016-Jul-19 23:33N 43°24' E 004°59'0 0.0
2016-Jul-19 22:33N 43°24' E 004°59'0 0.0
2016-Jul-19 21:34N 43°24' E 004°59'0 0.0
2016-Jul-19 20:34N 43°24' E 004°59'0 0.0
2016-Jul-19 19:33N 43°24' E 004°59'0 0.0
2016-Jul-19 18:34N 43°24' E 004°59'0 0.0
2016-Jul-19 17:33N 43°24' E 004°59'0 0.0
2016-Jul-19 16:33N 43°24' E 004°59'1 0.6
2016-Jul-19 15:33N 43°24' E 004°59'0 0.0
2016-Jul-19 14:33N 43°24' E 004°59'0 0.0
2016-Jul-19 13:33N 43°24' E 004°59'0 0.0
2016-Jul-19 12:34N 43°24' E 004°59'0 0.0
2016-Jul-19 11:33N 43°24' E 004°59'0 0.0
2016-Jul-19 10:33N 43°24' E 004°59'0 0.0
2016-Jul-19 09:34N 43°24' E 004°59'0 0.0
2016-Jul-19 08:33N 43°24' E 004°59'0 0.0
2016-Jul-19 07:33N 43°24' E 004°59'5 0.3
2016-Jul-18 13:21N 43°26' E 004°53'0 0.0
2016-Jul-18 12:31N 43°26' E 004°53'0 0.0
2016-Jul-18 11:32N 43°26' E 004°53'5 2.4
2016-Jul-18 09:33N 43°24' E 004°59'0 0.0
2016-Jul-18 08:33N 43°24' E 004°59'0 0.0
2016-Jul-18 07:33N 43°24' E 004°59'0 0.0
2016-Jul-18 06:33N 43°24' E 004°59'0 0.0
2016-Jul-18 05:33N 43°24' E 004°59'0 0.0
2016-Jul-18 04:34N 43°24' E 004°59'0 0.0
2016-Jul-18 03:33N 43°24' E 004°59'0 0.0
2016-Jul-18 02:33N 43°24' E 004°59'0 0.0
2016-Jul-18 01:33N 43°24' E 004°59'0 0.0
2016-Jul-18 00:33N 43°24' E 004°59'0 0.0
2016-Jul-17 23:34N 43°24' E 004°59'0 0.0
2016-Jul-17 22:33N 43°24' E 004°59'0 0.0
2016-Jul-17 21:34N 43°24' E 004°59'0 0.0
2016-Jul-17 20:34N 43°24' E 004°59'1 0.6
2016-Jul-17 19:34N 43°24' E 004°59'0 0.0
2016-Jul-17 18:33N 43°24' E 004°59'0 0.0
2016-Jul-17 17:33N 43°24' E 004°59'0 0.0
2016-Jul-17 16:33N 43°24' E 004°59'0 0.0
2016-Jul-17 15:33N 43°24' E 004°59'0 0.0
2016-Jul-17 14:33N 43°24' E 004°59'0 0.0
2016-Jul-17 13:34N 43°24' E 004°59'0 0.0
2016-Jul-17 12:34N 43°24' E 004°59'0 0.0
2016-Jul-17 11:33N 43°24' E 004°59'0 0.0
2016-Jul-17 10:33N 43°24' E 004°59'0 0.0
2016-Jul-17 09:33N 43°24' E 004°59'0 0.0
2016-Jul-17 08:33N 43°24' E 004°59'0 0.0
2016-Jul-17 07:33N 43°24' E 004°59'0 0.0
2016-Jul-17 06:34N 43°24' E 004°59'0 0.0
2016-Jul-17 04:33N 43°24' E 004°59'0 0.0
2016-Jul-17 03:33N 43°24' E 004°59'0 0.0
2016-Jul-17 02:34N 43°24' E 004°59'0 0.0
2016-Jul-17 01:33N 43°24' E 004°59'0 0.0
2016-Jul-17 00:33N 43°24' E 004°59'1 0.1
2016-Jul-16 14:26N 43°23' E 004°58'1 1.1
2016-Jul-16 13:33N 43°24' E 004°60'0 0.0
2016-Jul-16 12:33N 43°24' E 004°60'0 0.2
2016-Jul-16 11:33N 43°24' E 004°59'0 0.3
2016-Jul-16 10:33N 43°24' E 004°59'0 0.0
2016-Jul-16 09:34N 43°24' E 004°59'0 0.0
2016-Jul-16 08:33N 43°24' E 004°59'0 0.0
2016-Jul-16 07:33N 43°24' E 004°59'0 0.0
2016-Jul-16 06:33N 43°24' E 004°59'0 0.0
2016-Jul-16 04:33N 43°24' E 004°59'0 0.0
2016-Jul-16 03:33N 43°24' E 004°59'0 0.0
2016-Jul-16 02:33N 43°24' E 004°59'0 0.0
2016-Jul-16 01:33N 43°24' E 004°59'0 0.0
2016-Jul-16 00:33N 43°24' E 004°59'0 0.0
2016-Jul-15 05:33N 43°24' E 004°59'0 0.1
2016-Jul-15 04:33N 43°24' E 004°59'0 0.0
2016-Jul-15 03:33N 43°24' E 004°59'0 0.0
2016-Jul-15 02:34N 43°24' E 004°59'0 0.0
2016-Jul-15 01:34N 43°24' E 004°59'0 0.0
2016-Jul-15 00:34N 43°24' E 004°59'0 0.0
2016-Jul-14 23:33N 43°24' E 004°59'0 0.0
2016-Jul-14 22:33N 43°24' E 004°59'0 0.0
2016-Jul-14 21:33N 43°24' E 004°59'0 0.0
2016-Jul-14 20:33N 43°24' E 004°59'0 0.0
2016-Jul-14 19:33N 43°24' E 004°59'0 0.0
2016-Jul-14 18:33N 43°24' E 004°59'44 6.8
2016-Jul-14 12:03N 43°07' E 005°56'0 0.0
2016-Jul-14 11:27N 43°07' E 005°56'0 0.0
2016-Jul-14 10:27N 43°07' E 005°56'0 0.2
2016-Jul-14 07:18N 43°07' E 005°55'1 1.3
2016-Jul-14 06:28N 43°06' E 005°54'0 0.0
2016-Jul-14 05:31N 43°06' E 005°54'0 0.0
2016-Jul-14 04:28N 43°06' E 005°54'0 0.0
2016-Jul-14 03:31N 43°06' E 005°54'0 0.0
2016-Jul-14 02:28N 43°06' E 005°54'0 0.0
2016-Jul-14 01:31N 43°06' E 005°54'0 0.0
2016-Jul-14 00:31N 43°06' E 005°54'0 0.0
2016-Jul-13 23:31N 43°06' E 005°54'0 0.0
2016-Jul-13 22:31N 43°06' E 005°54'0 0.0
2016-Jul-13 21:31N 43°06' E 005°54'0 0.0
2016-Jul-13 20:31N 43°06' E 005°54'2 1.5
2016-Jul-13 19:28N 43°07' E 005°56'0 0.1
2016-Jul-13 18:31N 43°07' E 005°56'2 1.5
2016-Jul-13 17:31N 43°06' E 005°54'0 0.0
2016-Jul-13 16:33N 43°06' E 005°54'0 0.0
2016-Jul-13 15:33N 43°06' E 005°54'  

Dump ship's entire track history